createdAt,value
2018-04-13T00:00:12.715Z,19.71
2018-04-13T00:01:22.789Z,19.75
2018-04-13T00:02:32.850Z,19.78
2018-04-13T00:03:42.656Z,19.8
2018-04-13T00:04:52.734Z,19.71
2018-04-13T00:06:02.836Z,19.65
2018-04-13T00:07:12.648Z,19.67
2018-04-13T00:08:22.718Z,19.78
2018-04-13T00:09:32.813Z,19.63
2018-04-13T00:10:42.625Z,19.63
2018-04-13T00:11:52.721Z,19.61
2018-04-13T00:13:02.792Z,19.65
2018-04-13T00:14:12.896Z,19.57
2018-04-13T00:15:23.010Z,19.56
2018-04-13T00:16:33.091Z,19.53
2018-04-13T00:17:42.910Z,19.42
2018-04-13T00:18:52.989Z,19.31
2018-04-13T00:20:02.804Z,19.31
2018-04-13T00:21:12.607Z,19.27
2018-04-13T00:22:22.690Z,19.15
2018-04-13T00:23:32.516Z,19.23
2018-04-13T00:24:42.584Z,19.24
2018-04-13T00:25:52.675Z,19.15
2018-04-13T00:27:02.740Z,19.16
2018-04-13T00:28:12.801Z,19.17
2018-04-13T00:29:22.613Z,19.06
2018-04-13T00:30:32.682Z,18.99
2018-04-13T00:31:42.235Z,18.97
2018-04-13T00:32:52.304Z,19.05
2018-04-13T00:34:02.430Z,18.87
2018-04-13T00:35:12.538Z,18.86
2018-04-13T00:36:22.612Z,18.86
2018-04-13T00:37:32.689Z,18.78
2018-04-13T00:38:42.757Z,18.71
2018-04-13T00:39:52.589Z,18.54
2018-04-13T00:41:02.674Z,18.54
2018-04-13T00:42:12.747Z,18.54
2018-04-13T00:43:22.821Z,18.5
2018-04-13T00:44:32.630Z,18.42
2018-04-13T00:45:42.442Z,18.34
2018-04-13T00:46:52.523Z,18.24
2018-04-13T00:48:02.338Z,18.27
2018-04-13T00:49:12.507Z,18.14
2018-04-13T00:50:22.576Z,18.02
2018-04-13T00:51:32.215Z,17.9
2018-04-13T00:52:42.295Z,17.94
2018-04-13T00:53:52.368Z,17.77
2018-04-13T00:55:02.446Z,17.73
2018-04-13T00:56:12.569Z,17.74
2018-04-13T00:57:22.643Z,17.65
2018-04-13T00:58:32.725Z,17.5
2018-04-13T00:59:42.611Z,17.57
2018-04-13T01:00:52.686Z,17.52
2018-04-13T01:02:02.774Z,17.49
2018-04-13T01:03:12.322Z,17.45
2018-04-13T01:04:22.399Z,17.42
2018-04-13T01:05:32.476Z,17.46
2018-04-13T01:06:42.577Z,17.47
2018-04-13T01:07:52.739Z,17.45
2018-04-13T01:09:02.828Z,17.4
2018-04-13T01:10:12.910Z,17.38
2018-04-13T01:11:22.990Z,17.36
2018-04-13T01:12:33.084Z,17.39
2018-04-13T01:13:43.165Z,17.42
2018-04-13T01:14:52.983Z,17.35
2018-04-13T01:16:02.790Z,17.39
2018-04-13T01:17:12.900Z,17.35
2018-04-13T01:18:22.705Z,17.36
2018-04-13T01:19:32.788Z,17.32
2018-04-13T01:20:42.881Z,17.31
2018-04-13T01:21:52.972Z,17.35
2018-04-13T01:23:03.097Z,17.3
2018-04-13T01:24:13.176Z,17.39
2018-04-13T01:25:22.995Z,17.25
2018-04-13T01:26:33.123Z,17.24
2018-04-13T01:27:43.435Z,17.24
2018-04-13T01:28:53.513Z,17.27
2018-04-13T01:30:03.594Z,17.25
2018-04-13T01:31:13.671Z,17.31
2018-04-13T01:32:23.483Z,17.22
2018-04-13T01:33:33.560Z,17.31
2018-04-13T01:34:43.383Z,17.3
2018-04-13T01:35:53.480Z,17.28
2018-04-13T01:37:03.571Z,17.31
2018-04-13T01:38:13.387Z,17.27
2018-04-13T01:39:22.932Z,17.24
2018-04-13T01:40:32.767Z,17.24
2018-04-13T01:41:42.862Z,17.35
2018-04-13T01:42:52.680Z,17.3
2018-04-13T01:44:02.854Z,17.21
2018-04-13T01:45:12.927Z,17.22
2018-04-13T01:46:22.479Z,17.28
2018-04-13T01:47:32.564Z,17.22
2018-04-13T01:48:42.636Z,17.21
2018-04-13T01:49:52.729Z,17.25
2018-04-13T01:51:02.795Z,17.28
2018-04-13T01:52:12.870Z,17.22
2018-04-13T01:53:22.954Z,17.25
2018-04-13T01:54:33.035Z,17.25
2018-04-13T01:55:43.168Z,17.25
2018-04-13T01:56:53.244Z,17.13
2018-04-13T01:58:03.049Z,17.25
2018-04-13T01:59:13.152Z,17.21
2018-04-13T02:00:22.964Z,17.18
2018-04-13T02:01:32.844Z,17.2
2018-04-13T02:02:42.918Z,17.17
2018-04-13T02:03:52.731Z,17.18
2018-04-13T02:05:02.819Z,17.2
2018-04-13T02:06:12.900Z,17.13
2018-04-13T02:07:22.995Z,17.12
2018-04-13T02:08:33.065Z,17.1
2018-04-13T02:09:43.145Z,17.17
2018-04-13T02:10:53.221Z,17.18
2018-04-13T02:12:03.033Z,17.17
2018-04-13T02:13:13.128Z,17.09
2018-04-13T02:14:22.937Z,17.2
2018-04-13T02:15:33.019Z,17.17
2018-04-13T02:16:43.105Z,17.17
2018-04-13T02:17:52.912Z,17.13
2018-04-13T02:19:02.730Z,17.12
2018-04-13T02:20:12.537Z,17.15
2018-04-13T02:21:22.370Z,17.18
2018-04-13T02:22:32.453Z,17.13
2018-04-13T02:23:42.529Z,17.15
2018-04-13T02:24:52.666Z,17.05
2018-04-13T02:26:02.473Z,17.17
2018-04-13T02:27:12.017Z,17.1
2018-04-13T02:28:22.101Z,17.13
2018-04-13T02:29:32.170Z,17.06
2018-04-13T02:30:42.247Z,17.03
2018-04-13T02:31:52.338Z,17.05
2018-04-13T02:33:02.424Z,17.06
2018-04-13T02:34:12.287Z,16.9
2018-04-13T02:35:22.594Z,16.95
2018-04-13T02:36:32.675Z,17.02
2018-04-13T02:37:42.494Z,16.94
2018-04-13T02:38:52.581Z,17.05
2018-04-13T02:40:02.668Z,17.07
2018-04-13T02:41:12.761Z,17.07
2018-04-13T02:42:22.833Z,17.03
2018-04-13T02:43:32.945Z,17.06
2018-04-13T02:44:43.086Z,17.07
2018-04-13T02:45:53.169Z,17.09
2018-04-13T02:47:03.016Z,17.02
2018-04-13T02:48:13.102Z,17.09
2018-04-13T02:49:23.185Z,17
2018-04-13T02:50:33.285Z,16.92
2018-04-13T02:51:43.373Z,16.97
2018-04-13T02:52:53.442Z,16.99
2018-04-13T02:54:02.996Z,16.99
2018-04-13T02:55:12.863Z,16.99
2018-04-13T02:56:22.947Z,17.1
2018-04-13T02:57:32.766Z,17
2018-04-13T02:58:42.846Z,16.99
2018-04-13T02:59:52.996Z,17.03
2018-04-13T03:01:03.124Z,17.03
2018-04-13T03:02:12.950Z,16.88
2018-04-13T03:33:54.250Z,13.99
2018-04-13T03:35:04.321Z,13.87
2018-04-13T03:36:14.377Z,13.95
2018-04-13T03:37:24.454Z,14.01
2018-04-13T03:38:34.242Z,14.01
2018-04-13T03:39:44.336Z,14.09
2018-04-13T03:40:54.419Z,14.23
2018-04-13T03:42:04.505Z,14.38
2018-04-13T03:43:14.601Z,14.49
2018-04-13T03:44:24.687Z,14.59
2018-04-13T03:45:34.832Z,14.7
2018-04-13T03:46:44.909Z,14.89
2018-04-13T03:47:54.994Z,14.87
2018-04-13T03:49:05.079Z,15.15
2018-04-13T03:50:15.223Z,15.26
2018-04-13T03:51:25.342Z,15.31
2018-04-13T03:52:35.424Z,15.45
2018-04-13T03:53:45.505Z,15.59
2018-04-13T03:54:55.586Z,15.78
2018-04-13T03:56:05.671Z,15.86
2018-04-13T03:57:15.501Z,15.96
2018-04-13T03:58:25.568Z,16.07
2018-04-13T03:59:35.387Z,16.1
2018-04-13T04:00:45.190Z,16.22
2018-04-13T04:01:54.998Z,16.36
2018-04-13T04:03:04.856Z,16.48
2018-04-13T04:04:14.933Z,16.48
2018-04-13T04:05:24.752Z,16.49
2018-04-13T04:06:34.584Z,16.58
2018-04-13T04:07:44.670Z,16.62
2018-04-13T04:08:54.845Z,16.65
2018-04-13T04:10:04.664Z,16.72
2018-04-13T04:11:14.732Z,16.73
2018-04-13T04:12:24.806Z,16.8
2018-04-13T04:13:34.885Z,16.9
2018-04-13T04:14:44.985Z,16.88
2018-04-13T04:15:54.807Z,16.99
2018-04-13T04:17:04.881Z,17.02
2018-04-13T04:18:14.983Z,17.06
2018-04-13T04:19:24.811Z,17.1
2018-04-13T04:20:34.894Z,17.13
2018-04-13T04:21:45.014Z,17.13
2018-04-13T04:22:55.115Z,17.17
2018-04-13T04:24:05.205Z,17.24
2018-04-13T04:25:15.400Z,17.21
2018-04-13T04:26:25.553Z,17.27
2018-04-13T04:27:35.662Z,17.21
2018-04-13T04:28:45.226Z,17.35
2018-04-13T04:29:54.779Z,17.3
2018-04-13T04:31:04.865Z,17.31
2018-04-13T04:32:14.734Z,17.35
2018-04-13T04:33:24.830Z,17.39
2018-04-13T04:34:34.751Z,17.42
2018-04-13T04:35:44.862Z,17.42
2018-04-13T04:36:54.952Z,17.4
2018-04-13T04:38:04.764Z,17.45
2018-04-13T04:39:14.603Z,17.49
2018-04-13T04:40:24.411Z,17.5
2018-04-13T04:41:34.483Z,17.5
2018-04-13T04:42:44.568Z,17.54
2018-04-13T04:43:54.705Z,17.54
2018-04-13T04:45:04.805Z,17.69
2018-04-13T04:46:14.623Z,17.69
2018-04-13T04:47:24.441Z,17.81
2018-04-13T04:48:34.522Z,17.81
2018-04-13T04:49:44.392Z,17.87
2018-04-13T04:50:54.463Z,17.98
2018-04-13T04:52:04.537Z,17.98
2018-04-13T04:53:14.698Z,17.95
2018-04-13T04:54:24.771Z,18.1
2018-04-13T04:55:34.856Z,18.1
2018-04-13T04:56:44.934Z,18.1
2018-04-13T04:57:55.022Z,18.08
2018-04-13T04:59:04.854Z,18.01
2018-04-13T05:00:14.939Z,18.01
2018-04-13T05:01:25.024Z,18.06
2018-04-13T05:02:35.118Z,18.08
2018-04-13T05:03:45.226Z,18.05
2018-04-13T05:04:55.294Z,18.14
2018-04-13T05:06:05.378Z,18.19
2018-04-13T05:07:15.530Z,18.21
2018-04-13T05:08:25.367Z,18.17
2018-04-13T05:09:35.441Z,18.14
2018-04-13T05:10:45.549Z,18.2
2018-04-13T05:11:55.481Z,18.19
2018-04-13T05:13:05.250Z,18.17
2018-04-13T05:14:15.071Z,18.16
2018-04-13T05:15:24.882Z,18.31
2018-04-13T05:16:34.960Z,18.17
2018-04-13T05:17:45.046Z,18.16
2018-04-13T05:18:55.128Z,18.31
2018-04-13T05:20:04.676Z,18.32
2018-04-13T05:21:14.771Z,18.44
2018-04-13T05:22:24.853Z,18.42
2018-04-13T05:23:34.702Z,18.41
2018-04-13T05:24:44.790Z,18.44
2018-04-13T05:25:54.606Z,18.34
2018-04-13T05:27:04.713Z,18.38
2018-04-13T05:28:14.541Z,18.34
2018-04-13T05:29:24.469Z,18.39
2018-04-13T05:30:34.553Z,18.41
2018-04-13T05:31:44.630Z,18.42
2018-04-13T05:32:54.700Z,18.47
2018-04-13T05:34:04.522Z,18.54
2018-04-13T05:35:14.550Z,18.56
2018-04-13T05:36:24.584Z,18.63
2018-04-13T05:37:34.419Z,18.72
2018-04-13T05:38:44.246Z,18.84
2018-04-13T05:39:54.312Z,18.9
2018-04-13T05:41:04.132Z,18.93
2018-04-13T05:42:14.004Z,19.15
2018-04-13T05:43:24.084Z,19.19
2018-04-13T05:44:34.153Z,19.23
2018-04-13T05:45:44.019Z,19.34
2018-04-13T05:46:53.851Z,19.32
2018-04-13T05:48:03.922Z,19.35
2018-04-13T05:49:13.999Z,19.43
2018-04-13T05:50:24.087Z,19.43
2018-04-13T05:51:34.178Z,19.34
2018-04-13T05:52:44.001Z,19.32
2018-04-13T05:53:53.819Z,19.34
2018-04-13T05:55:03.636Z,19.4
2018-04-13T05:56:13.710Z,19.32
2018-04-13T05:57:23.512Z,19.42
2018-04-13T05:58:33.358Z,19.46
2018-04-13T05:59:43.497Z,19.52
2018-04-13T06:00:53.079Z,19.65
2018-04-13T06:02:03.156Z,19.78
2018-04-13T06:03:13.223Z,19.9
2018-04-13T06:04:23.314Z,20.04
2018-04-13T06:05:33.200Z,20.05
2018-04-13T06:06:43.309Z,20.22
2018-04-13T06:07:53.403Z,20.44
2018-04-13T06:09:03.484Z,20.42
2018-04-13T06:10:13.583Z,20.64
2018-04-13T06:11:23.392Z,20.67
2018-04-13T06:12:33.217Z,20.72
2018-04-13T06:13:43.305Z,20.74
2018-04-13T06:14:53.401Z,20.88
2018-04-13T06:16:03.221Z,20.97
2018-04-13T06:17:13.310Z,20.76
2018-04-13T06:18:23.400Z,20.46
2018-04-13T06:19:33.477Z,20.44
2018-04-13T06:20:43.563Z,20.49
2018-04-13T06:21:53.646Z,20.6
2018-04-13T06:23:03.719Z,20.68
2018-04-13T06:24:13.825Z,20.66
2018-04-13T06:25:24.114Z,20.66
2018-04-13T06:26:34.189Z,20.64
2018-04-13T06:27:44.283Z,20.81
2018-04-13T06:28:54.404Z,20.81
2018-04-13T06:30:03.959Z,20.91
2018-04-13T06:31:14.040Z,21.04
2018-04-13T06:32:24.108Z,21.15
2018-04-13T06:33:34.223Z,21.27
2018-04-13T06:34:44.052Z,21.41
2018-04-13T06:35:54.134Z,21.46
2018-04-13T06:37:03.959Z,21.62
2018-04-13T06:38:14.046Z,21.74
2018-04-13T06:39:23.850Z,21.83
2018-04-13T06:40:34.062Z,21.97
2018-04-13T06:41:44.149Z,21.83
2018-04-13T06:42:53.964Z,22.15
2018-04-13T06:44:04.056Z,22.12
2018-04-13T06:45:14.133Z,21.96
2018-04-13T06:46:24.281Z,22
2018-04-13T06:47:34.368Z,22.22
2018-04-13T06:48:44.685Z,22.2
2018-04-13T06:49:54.612Z,22.29
2018-04-13T06:51:04.193Z,22.48
2018-04-13T06:52:14.272Z,22.59
2018-04-13T06:53:24.360Z,22.69
2018-04-13T06:54:34.427Z,22.55
2018-04-13T06:55:44.515Z,22.76
2018-04-13T06:56:54.622Z,22.91
2018-04-13T06:58:04.723Z,22.92
2018-04-13T06:59:14.835Z,22.88
2018-04-13T07:00:24.920Z,22.88
2018-04-13T07:01:34.998Z,23
2018-04-13T07:02:45.091Z,22.91
2018-04-13T07:03:55.195Z,22.97
2018-04-13T07:05:05.008Z,22.91
2018-04-13T07:06:15.088Z,22.75
2018-04-13T07:07:24.920Z,22.57
2018-04-13T07:08:35.013Z,22.36
2018-04-13T07:09:45.092Z,22.41
2018-04-13T07:10:55.176Z,22.41
2018-04-13T07:12:05.341Z,22.42
2018-04-13T07:13:15.175Z,22.42
2018-04-13T07:14:25.320Z,22.52
2018-04-13T07:15:35.398Z,22.51
2018-04-13T07:16:45.275Z,22.57
2018-04-13T07:17:55.074Z,22.78
2018-04-13T07:19:05.176Z,22.99
2018-04-13T07:20:15.296Z,23.21
2018-04-13T07:21:25.364Z,23.4
2018-04-13T07:22:35.176Z,23.6
2018-04-13T07:23:44.999Z,23.64
2018-04-13T07:24:54.852Z,23.84
2018-04-13T07:26:04.912Z,23.97
2018-04-13T07:27:14.727Z,24.04
2018-04-13T07:28:24.813Z,24
2018-04-13T07:29:34.906Z,24.03
2018-04-13T07:30:44.745Z,23.97
2018-04-13T07:31:54.297Z,23.99
2018-04-13T07:33:04.404Z,23.94
2018-04-13T07:34:16.150Z,23.89
2018-04-13T07:35:26.268Z,23.87
2018-04-13T07:36:36.362Z,23.9
2018-04-13T07:37:46.494Z,23.93
2018-04-13T07:38:56.573Z,23.93
2018-04-13T07:40:07.332Z,23.93
2018-04-13T07:41:17.414Z,23.93
2018-04-13T07:42:27.259Z,23.99
2018-04-13T07:43:38.018Z,23.99
2018-04-13T07:44:48.427Z,23.9
2018-04-13T07:45:58.562Z,23.92
2018-04-13T07:47:08.113Z,23.93
2018-04-13T07:48:18.281Z,23.97
2018-04-13T07:49:28.377Z,24.03
2018-04-13T07:50:38.225Z,24.11
2018-04-13T07:51:48.065Z,24.17
2018-04-13T07:52:58.169Z,24.29
2018-04-13T07:54:08.263Z,24.33
2018-04-13T07:55:18.353Z,24.33
2018-04-13T07:56:28.467Z,24.34
2018-04-13T07:57:38.548Z,24.44
2018-04-13T07:58:48.092Z,24.45
2018-04-13T07:59:57.910Z,24.58
2018-04-13T08:01:08.509Z,24.7
2018-04-13T08:02:18.583Z,24.58
2018-04-13T08:03:28.469Z,24.51
2018-04-13T08:04:38.299Z,24.42
2018-04-13T08:05:48.953Z,24.66
2018-04-13T08:06:59.217Z,24.75
2018-04-13T08:08:09.478Z,25.04
2018-04-13T08:09:19.290Z,25.12
2018-04-13T08:10:29.155Z,25.39
2018-04-13T08:11:38.987Z,25.57
2018-04-13T08:12:48.835Z,25.6
2018-04-13T08:13:59.600Z,25.62
2018-04-13T08:15:09.158Z,25.6
2018-04-13T08:16:19.265Z,25.52
2018-04-13T08:17:29.381Z,25.42
2018-04-13T08:18:39.481Z,25.44
2018-04-13T08:19:49.564Z,25.33
2018-04-13T08:20:59.648Z,25.38
2018-04-13T08:22:09.734Z,25.42
2018-04-13T08:23:19.866Z,25.42
2018-04-13T08:24:30.123Z,25.45
2018-04-13T08:25:39.950Z,25.57
2018-04-13T08:26:50.043Z,25.67
2018-04-13T08:28:00.127Z,25.66
2018-04-13T08:29:10.219Z,25.49
2018-04-13T08:30:20.313Z,25.45
2018-04-13T08:31:30.395Z,25.45
2018-04-13T08:32:39.938Z,25.3
2018-04-13T08:33:50.219Z,25.26
2018-04-13T08:35:00.306Z,25.26
2018-04-13T08:36:10.458Z,25.15
2018-04-13T08:37:20.551Z,25.29
2018-04-13T08:38:30.442Z,25.05
2018-04-13T08:39:40.020Z,24.87
2018-04-13T08:40:50.193Z,25.17
2018-04-13T08:42:00.338Z,25.24
2018-04-13T08:43:10.453Z,25.2
2018-04-13T08:44:20.743Z,25.01
2018-04-13T08:45:30.865Z,24.86
2018-04-13T08:46:40.953Z,24.83
2018-04-13T08:47:51.084Z,24.77
2018-04-13T08:49:01.185Z,24.7
2018-04-13T08:50:11.956Z,24.77
2018-04-13T08:51:22.125Z,24.67
2018-04-13T08:52:32.321Z,24.32
2018-04-13T08:53:42.514Z,24.36
2018-04-13T08:54:52.331Z,24.33
2018-04-13T08:56:02.174Z,24.29
2018-04-13T08:57:12.256Z,24.32
2018-04-13T08:58:22.356Z,24.34
2018-04-13T08:59:32.231Z,24.44
2018-04-13T09:00:42.052Z,24.51
2018-04-13T09:01:51.877Z,24.55
2018-04-13T09:03:01.944Z,24.55
2018-04-13T09:04:11.758Z,24.52
2018-04-13T09:05:21.857Z,24.55
2018-04-13T09:06:32.150Z,24.77
2018-04-13T09:07:42.309Z,24.9
2018-04-13T09:08:51.881Z,25
2018-04-13T09:10:01.979Z,25.08
2018-04-13T09:11:12.127Z,25.14
2018-04-13T09:12:21.943Z,25.02
2018-04-13T09:13:32.077Z,25.02
2018-04-13T09:14:42.187Z,24.94
2018-04-13T09:15:52.008Z,24.89
2018-04-13T09:17:02.106Z,24.87
2018-04-13T09:18:11.981Z,24.94
2018-04-13T09:19:22.090Z,24.9
2018-04-13T09:20:32.277Z,24.83
2018-04-13T09:21:42.371Z,24.9
2018-04-13T09:22:51.917Z,24.87
2018-04-13T09:24:02.002Z,25.04
2018-04-13T09:25:12.102Z,24.93
2018-04-13T09:26:22.198Z,25
2018-04-13T09:27:32.020Z,24.96
2018-04-13T09:28:42.150Z,24.94
2018-04-13T09:29:52.224Z,24.96
2018-04-13T09:31:02.331Z,25.01
2018-04-13T09:32:12.409Z,25.12
2018-04-13T09:33:22.222Z,25.12
2018-04-13T09:34:32.351Z,25.05
2018-04-13T09:35:42.206Z,25.05
2018-04-13T09:36:52.383Z,25
2018-04-13T09:38:02.460Z,25.07
2018-04-13T09:39:12.565Z,24.89
2018-04-13T09:40:22.387Z,24.89
2018-04-13T09:41:32.501Z,24.8
2018-04-13T09:42:42.583Z,24.69
2018-04-13T09:43:52.683Z,24.78
2018-04-13T09:45:02.787Z,24.69
2018-04-13T09:46:13.038Z,24.71
2018-04-13T09:47:23.115Z,24.67
2018-04-13T09:48:33.202Z,24.69
2018-04-13T09:49:43.020Z,24.75
2018-04-13T09:50:52.843Z,24.63
2018-04-13T09:52:02.981Z,24.63
2018-04-13T09:53:13.055Z,24.56
2018-04-13T09:54:23.130Z,24.59
2018-04-13T09:55:32.688Z,24.64
2018-04-13T09:56:42.502Z,24.59
2018-04-13T09:57:52.662Z,24.59
2018-04-13T09:59:02.733Z,24.66
2018-04-13T10:00:12.821Z,24.74
2018-04-13T10:01:22.902Z,24.69
2018-04-13T10:02:32.996Z,24.75
2018-04-13T10:03:43.137Z,24.83
2018-04-13T10:04:53.217Z,24.71
2018-04-13T10:06:03.305Z,24.74
2018-04-13T10:07:13.129Z,24.75
2018-04-13T10:08:23.212Z,24.78
2018-04-13T10:09:33.307Z,24.8
2018-04-13T10:10:43.129Z,24.8
2018-04-13T10:11:53.219Z,24.8
2018-04-13T10:13:02.774Z,24.89
2018-04-13T10:14:12.844Z,24.93
2018-04-13T10:15:22.930Z,24.97
2018-04-13T10:16:32.758Z,25.01
2018-04-13T10:17:42.578Z,25.07
2018-04-13T10:18:52.667Z,25.04
2018-04-13T10:20:02.751Z,25.11
2018-04-13T10:21:12.874Z,25.14
2018-04-13T10:22:22.949Z,25.33
2018-04-13T10:23:33.057Z,25.33
2018-04-13T10:24:43.170Z,25.38
2018-04-13T10:25:53.303Z,25.57
2018-04-13T10:27:03.396Z,25.57
2018-04-13T10:28:13.226Z,25.67
2018-04-13T10:29:23.296Z,25.64
2018-04-13T10:30:33.382Z,25.63
2018-04-13T10:31:43.485Z,25.67
2018-04-13T10:32:53.586Z,25.67
2018-04-13T10:34:03.669Z,25.74
2018-04-13T10:35:13.772Z,25.75
2018-04-13T10:36:23.855Z,25.74
2018-04-13T10:37:33.923Z,25.74
2018-04-13T10:38:44.067Z,25.81
2018-04-13T10:39:54.171Z,25.89
2018-04-13T10:41:04.285Z,25.85
2018-04-13T10:42:14.365Z,25.86
2018-04-13T10:43:24.431Z,25.86
2018-04-13T10:44:34.556Z,25.86
2018-04-13T10:45:44.645Z,25.96
2018-04-13T10:46:54.769Z,25.89
2018-04-13T10:48:04.853Z,25.85
2018-04-13T10:49:14.939Z,25.84
2018-04-13T10:50:24.891Z,25.94
2018-04-13T10:51:34.973Z,26.01
2018-04-13T10:52:45.066Z,26.07
2018-04-13T10:53:55.152Z,26.09
2018-04-13T10:55:04.987Z,26.15
2018-04-13T10:56:14.809Z,26.17
2018-04-13T10:57:24.916Z,26.23
2018-04-13T10:58:34.744Z,26.27
2018-04-13T10:59:44.832Z,26.27
2018-04-13T11:00:54.972Z,26.31
2018-04-13T11:02:05.068Z,26.31
2018-04-13T11:03:15.145Z,26.27
2018-04-13T11:04:25.217Z,26.31
2018-04-13T11:05:35.287Z,26.47
2018-04-13T11:06:45.116Z,26.42
2018-04-13T11:07:55.253Z,26.45
2018-04-13T11:09:04.803Z,26.5
2018-04-13T11:10:14.943Z,26.67
2018-04-13T11:11:24.917Z,26.68
2018-04-13T11:12:34.741Z,26.64
2018-04-13T11:13:44.834Z,26.68
2018-04-13T11:14:54.907Z,26.69
2018-04-13T11:16:04.739Z,26.74
2018-04-13T11:17:14.574Z,26.84
2018-04-13T11:18:24.392Z,26.96
2018-04-13T11:19:34.014Z,26.94
2018-04-13T11:20:44.143Z,26.89
2018-04-13T11:21:54.250Z,26.9
2018-04-13T11:23:04.074Z,26.93
2018-04-13T11:24:14.176Z,26.96
2018-04-13T11:25:24.260Z,26.97
2018-04-13T11:26:34.342Z,26.89
2018-04-13T11:27:44.453Z,26.96
2018-04-13T11:28:54.547Z,26.94
2018-04-13T11:30:04.368Z,26.97
2018-04-13T11:31:14.246Z,26.89
2018-04-13T11:32:24.341Z,26.87
2018-04-13T11:33:34.606Z,26.93
2018-04-13T11:34:44.473Z,26.96
2018-04-13T11:35:54.554Z,26.97
2018-04-13T11:37:04.629Z,27.12
2018-04-13T11:38:14.439Z,27.09
2018-04-13T11:39:24.524Z,27.21
2018-04-13T11:48:37.015Z,27.64
2018-04-13T11:49:47.125Z,27.74
2018-04-13T11:50:57.224Z,27.68
2018-04-13T11:52:06.509Z,27.8
2018-04-13T11:53:16.620Z,27.71
2018-04-13T11:54:26.745Z,27.59
2018-04-13T11:55:36.580Z,27.52
2018-04-13T11:56:46.671Z,27.46
2018-04-13T11:57:56.748Z,27.52
2018-04-13T11:59:06.853Z,27.53
2018-04-13T12:00:17.197Z,27.48
2018-04-13T12:01:27.318Z,27.52
2018-04-13T12:02:37.538Z,27.37
2018-04-13T12:03:47.620Z,27.42
2018-04-13T12:04:57.489Z,27.37
2018-04-13T12:06:07.593Z,27.52
2018-04-13T12:07:17.677Z,27.51
2018-04-13T12:08:27.814Z,27.64
2018-04-13T12:09:37.925Z,27.61
2018-04-13T12:10:48.010Z,27.65
2018-04-13T12:11:58.077Z,27.71
2018-04-13T12:13:08.169Z,27.68
2018-04-13T12:14:18.259Z,27.76
2018-04-13T12:15:28.335Z,27.81
2018-04-13T12:16:38.416Z,27.9
2018-04-13T12:17:48.538Z,28.03
2018-04-13T12:18:58.359Z,27.99
2018-04-13T12:20:08.479Z,28.05
2018-04-13T12:21:18.333Z,27.98
2018-04-13T12:22:28.483Z,28.08
2018-04-13T12:23:38.591Z,28.11
2018-04-13T12:24:48.423Z,28.09
2018-04-13T12:25:58.521Z,28.02
2018-04-13T12:27:08.612Z,27.99
2018-04-13T12:28:18.710Z,27.98
2018-04-13T12:29:28.816Z,28.05
2018-04-13T12:30:38.666Z,28.01
2018-04-13T12:31:48.492Z,27.96
2018-04-13T12:32:58.590Z,27.98
2018-04-13T12:34:08.150Z,27.96
2018-04-13T12:35:18.246Z,28.01
2018-04-13T12:36:28.339Z,27.94
2018-04-13T12:37:38.436Z,28.03
2018-04-13T12:38:48.275Z,28.06
2018-04-13T12:39:58.378Z,28.14
2018-04-13T12:41:08.496Z,28.11
2018-04-13T12:42:18.594Z,28.11
2018-04-13T12:43:28.678Z,28.16
2018-04-13T12:44:38.526Z,28.12
2018-04-13T12:45:48.638Z,28.23
2018-04-13T12:46:58.742Z,28.2
2018-04-13T12:48:08.870Z,28.23
2018-04-13T12:49:18.954Z,28.35
2018-04-13T12:50:29.052Z,28.45
2018-04-13T12:51:39.155Z,28.48
2018-04-13T12:52:49.488Z,28.51
2018-04-13T12:53:59.796Z,28.53
2018-04-13T12:55:10.744Z,28.61
2018-04-13T12:56:21.365Z,28.63
2018-04-13T12:57:31.534Z,28.7
2018-04-13T12:58:41.630Z,28.7
2018-04-13T12:59:51.749Z,28.64
2018-04-13T13:01:01.852Z,28.53
2018-04-13T13:02:11.439Z,28.41
2018-04-13T13:03:21.589Z,28.42
2018-04-13T13:04:31.697Z,28.31
2018-04-13T13:05:41.790Z,28.23
2018-04-13T13:06:51.875Z,28.24
2018-04-13T13:08:01.989Z,28.36
2018-04-13T13:09:11.900Z,28.39
2018-04-13T13:10:21.995Z,28.38
2018-04-13T13:11:31.834Z,28.43
2018-04-13T13:12:41.929Z,28.43
2018-04-13T13:13:52.007Z,28.48
2018-04-13T13:15:02.148Z,28.28
2018-04-13T13:16:12.236Z,28.31
2018-04-13T13:17:21.797Z,28.2
2018-04-13T13:18:31.872Z,28.28
2018-04-13T13:19:41.984Z,28.27
2018-04-13T13:20:52.099Z,28.23
2018-04-13T13:22:02.194Z,28.33
2018-04-13T13:23:12.305Z,28.18
2018-04-13T13:24:22.387Z,28.27
2018-04-13T13:25:32.465Z,28.23
2018-04-13T13:26:42.337Z,28.27
2018-04-13T13:27:52.418Z,28.31
2018-04-13T13:29:02.538Z,28.28
2018-04-13T13:30:12.638Z,28.26
2018-04-13T13:31:22.735Z,28.09
2018-04-13T13:32:32.639Z,28.09
2018-04-13T13:33:42.486Z,27.94
2018-04-13T13:34:52.591Z,27.87
2018-04-13T13:36:02.676Z,27.84
2018-04-13T13:37:12.780Z,27.9
2018-04-13T13:38:22.908Z,27.9
2018-04-13T13:39:32.996Z,27.84
2018-04-13T13:40:43.081Z,27.94
2018-04-13T13:41:52.650Z,27.94
2018-04-13T13:43:02.492Z,28.01
2018-04-13T13:44:12.605Z,27.93
2018-04-13T13:45:22.684Z,27.87
2018-04-13T13:46:32.508Z,27.83
2018-04-13T13:47:42.606Z,27.86
2018-04-13T13:48:52.731Z,27.86
2018-04-13T13:50:02.829Z,27.8
2018-04-13T13:51:12.973Z,27.89
2018-04-13T13:52:23.068Z,27.9
2018-04-13T13:53:33.149Z,27.91
2018-04-13T13:54:43.256Z,27.9
2018-04-13T13:55:53.188Z,27.86
2018-04-13T13:57:03.303Z,27.9
2018-04-13T13:58:13.397Z,27.94
2018-04-13T13:59:23.233Z,27.84
2018-04-13T14:00:33.047Z,27.9
2018-04-13T14:01:42.907Z,27.87
2018-04-13T14:02:52.756Z,27.8
2018-04-13T14:04:02.914Z,27.81
2018-04-13T14:05:12.903Z,27.86
2018-04-13T14:06:23.010Z,27.89
2018-04-13T14:07:33.155Z,27.83
2018-04-13T14:08:43.254Z,27.86
2018-04-13T14:09:53.063Z,27.93
2018-04-13T14:11:03.172Z,27.98
2018-04-13T14:12:13.266Z,27.99
2018-04-13T14:13:23.384Z,28.03
2018-04-13T14:14:33.498Z,28.03
2018-04-13T14:15:43.593Z,28.01
2018-04-13T14:16:53.676Z,27.93
2018-04-13T14:18:04.015Z,27.87
2018-04-13T14:19:14.138Z,27.89
2018-04-13T14:20:24.251Z,27.9
2018-04-13T14:21:34.074Z,27.8
2018-04-13T14:22:44.014Z,27.76
2018-04-13T14:23:54.135Z,27.72
2018-04-13T14:25:04.236Z,27.68
2018-04-13T14:26:14.322Z,27.74
2018-04-13T14:27:24.167Z,27.64
2018-04-13T14:28:34.004Z,27.59
2018-04-13T14:29:43.973Z,27.66
2018-04-13T14:30:55.636Z,27.62
2018-04-13T14:32:07.361Z,27.62
2018-04-13T14:33:17.480Z,27.66
2018-04-13T14:34:27.602Z,27.55
2018-04-13T14:35:37.740Z,27.64
2018-04-13T14:36:48.123Z,27.62
2018-04-13T14:37:58.288Z,27.64
2018-04-13T14:39:08.184Z,27.59
2018-04-13T14:40:18.311Z,27.57
2018-04-13T14:41:28.674Z,27.59
2018-04-13T14:42:39.092Z,27.53
2018-04-13T14:43:49.448Z,27.52
2018-04-13T14:44:59.583Z,27.51
2018-04-13T14:46:09.439Z,27.49
2018-04-13T14:47:19.553Z,27.51
2018-04-13T14:48:29.407Z,27.51
2018-04-13T14:49:39.543Z,27.49
2018-04-13T14:50:49.382Z,27.41
2018-04-13T14:51:59.726Z,27.36
2018-04-13T14:53:10.696Z,27.38
2018-04-13T14:54:20.821Z,27.38
2018-04-13T14:55:30.941Z,27.31
2018-04-13T14:56:41.043Z,27.37
2018-04-13T14:57:51.144Z,27.42
2018-04-13T14:59:01.235Z,27.37
2018-04-13T15:00:11.389Z,27.33
2018-04-13T15:01:21.505Z,27.45
2018-04-13T15:02:31.379Z,27.37
2018-04-13T15:03:41.473Z,27.34
2018-04-13T15:04:51.572Z,27.21
2018-04-13T15:06:01.705Z,27.19
2018-04-13T15:07:11.815Z,27.08
2018-04-13T15:08:21.930Z,27.05
2018-04-13T15:09:31.782Z,27.04
2018-04-13T15:10:41.929Z,26.97
2018-04-13T15:11:52.052Z,27.06
2018-04-13T15:13:02.155Z,26.94
2018-04-13T15:14:12.255Z,26.91
2018-04-13T15:15:22.341Z,26.76
2018-04-13T15:16:32.181Z,26.81
2018-04-13T15:17:42.082Z,26.78
2018-04-13T15:18:52.191Z,26.79
2018-04-13T15:20:02.024Z,26.79
2018-04-13T15:21:11.915Z,26.9
2018-04-13T15:22:22.025Z,26.9
2018-04-13T15:23:32.118Z,26.79
2018-04-13T15:24:42.225Z,26.67
2018-04-13T15:25:52.324Z,26.61
2018-04-13T15:27:02.637Z,26.64
2018-04-13T15:28:12.465Z,26.6
2018-04-13T15:29:22.364Z,26.59
2018-04-13T15:30:32.489Z,26.63
2018-04-13T15:31:42.312Z,26.56
2018-04-13T15:32:52.428Z,26.49
2018-04-13T15:34:02.561Z,26.42
2018-04-13T15:35:13.599Z,26.41
2018-04-13T15:36:23.174Z,26.44
2018-04-13T15:37:33.272Z,26.44
2018-04-13T15:38:43.379Z,26.31
2018-04-13T15:39:53.487Z,26.32
2018-04-13T15:41:03.577Z,26.37
2018-04-13T15:42:13.432Z,26.31
2018-04-13T15:43:23.566Z,26.35